createdAt,value
2023-04-10T00:08:36.638Z,6.20
2023-04-10T00:12:08.709Z,6.18
2023-04-10T00:15:58.411Z,6.10
2023-04-10T00:19:35.505Z,6.21
2023-04-10T00:23:28.268Z,6.08
2023-04-10T00:27:21.180Z,5.99
2023-04-10T00:30:42.672Z,5.82
2023-04-10T00:34:17.684Z,5.65
2023-04-10T00:42:08.034Z,5.92
2023-04-10T00:46:08.708Z,5.67
2023-04-10T00:49:49.549Z,5.63
2023-04-10T01:02:43.259Z,5.66
2023-04-10T01:06:56.138Z,6.09
2023-04-10T01:10:40.766Z,6.24
2023-04-10T01:26:11.441Z,5.88
2023-04-10T01:29:53.699Z,6.00
2023-04-10T01:33:14.025Z,5.69
2023-04-10T01:36:30.356Z,5.49
2023-04-10T01:39:39.362Z,5.67
2023-04-10T01:43:01.063Z,5.39
2023-04-10T01:46:08.694Z,5.62
2023-04-10T01:49:23.233Z,5.67
2023-04-10T01:52:58.570Z,5.72
2023-04-10T01:56:20.954Z,5.62
2023-04-10T01:59:35.222Z,5.42
2023-04-10T02:02:59.323Z,5.31
2023-04-10T02:06:44.617Z,5.45
2023-04-10T02:10:44.590Z,5.27
2023-04-10T02:14:43.538Z,5.50
2023-04-10T02:18:02.888Z,5.45
2023-04-10T02:21:31.330Z,5.47
2023-04-10T02:24:49.138Z,5.16
2023-04-10T02:28:13.718Z,5.29
2023-04-10T02:31:25.736Z,5.48
2023-04-10T02:34:35.115Z,5.34
2023-04-10T02:37:52.214Z,5.43
2023-04-10T02:41:27.262Z,5.36
2023-04-10T02:44:45.428Z,5.34
2023-04-10T02:47:57.671Z,5.40
2023-04-10T02:55:23.878Z,5.27
2023-04-10T02:58:52.029Z,5.39
2023-04-10T03:06:56.217Z,5.28
2023-04-10T03:10:43.755Z,5.46
2023-04-10T03:14:13.159Z,5.33
2023-04-10T03:17:39.692Z,5.17
2023-04-10T03:21:09.105Z,5.19
2023-04-10T03:24:15.258Z,5.17
2023-04-10T03:27:34.117Z,5.20
2023-04-10T03:30:55.100Z,4.94
2023-04-10T03:34:28.657Z,5.01
2023-04-10T03:37:34.896Z,4.99
2023-04-10T03:40:41.980Z,4.93
2023-04-10T03:43:50.882Z,5.12
2023-04-10T03:46:55.668Z,4.91
2023-04-10T03:50:15.053Z,4.99
2023-04-10T03:53:37.779Z,4.99
2023-04-10T03:57:05.886Z,4.89
2023-04-10T04:00:53.661Z,4.82
2023-04-10T04:04:30.219Z,4.91
2023-04-10T04:08:10.889Z,4.67
2023-04-10T04:11:24.495Z,4.87
2023-04-10T04:14:33.397Z,4.73
2023-04-10T04:18:07.999Z,4.86
2023-04-10T04:21:35.393Z,4.86
2023-04-10T04:25:09.941Z,4.89
2023-04-10T04:28:19.526Z,4.83
2023-04-10T04:31:49.114Z,4.81
2023-04-10T04:39:27.476Z,4.60
2023-04-10T04:43:27.445Z,4.78
2023-04-10T05:15:17.071Z,4.87
2023-04-10T05:18:40.868Z,4.74
2023-04-10T05:22:32.604Z,4.83
2023-04-10T05:25:53.894Z,4.93
2023-04-10T05:29:52.841Z,4.90
2023-04-10T05:33:04.133Z,5.09
2023-04-10T05:40:12.296Z,5.13
2023-04-10T05:43:18.838Z,5.14
2023-04-10T05:46:25.213Z,5.18
2023-04-10T05:49:44.010Z,5.44
2023-04-10T05:53:04.057Z,5.38
2023-04-10T05:56:11.531Z,5.59
2023-04-10T05:59:15.341Z,5.54
2023-04-10T06:03:00.398Z,5.58
2023-04-10T06:06:09.686Z,5.84
2023-04-10T06:14:39.109Z,6.39
2023-04-10T06:31:42.912Z,8.42
2023-04-10T06:39:25.874Z,12.11
2023-04-10T06:43:10.726Z,10.08
2023-04-10T07:31:10.739Z,10.30
2023-04-10T07:35:04.165Z,10.10
2023-04-10T07:38:26.516Z,9.96
2023-04-10T07:42:08.882Z,9.87
2023-04-10T07:45:18.200Z,10.13
2023-04-10T07:48:28.915Z,9.90
2023-04-10T07:51:57.265Z,10.21
2023-04-10T07:55:06.177Z,10.29
2023-04-10T07:58:19.725Z,10.47
2023-04-10T08:01:50.115Z,10.62
2023-04-10T08:05:14.217Z,10.74
2023-04-10T08:08:29.897Z,11.04
2023-04-10T08:11:49.493Z,10.76
2023-04-10T08:15:08.076Z,10.55
2023-04-10T08:18:26.704Z,10.59
2023-04-10T08:25:34.064Z,10.90
2023-04-10T08:29:06.897Z,11.13
2023-04-10T08:32:41.629Z,11.24
2023-04-10T08:36:01.328Z,11.31
2023-04-10T08:39:23.164Z,11.27
2023-04-10T08:42:33.903Z,11.45
2023-04-10T08:46:01.365Z,11.46
2023-04-10T08:49:52.202Z,11.59
2023-04-10T08:53:14.034Z,11.71
2023-04-10T08:56:48.633Z,12.00
2023-04-10T09:07:49.157Z,12.01
2023-04-10T09:11:09.076Z,12.31
2023-04-10T09:19:55.043Z,12.45
2023-04-10T09:23:42.021Z,12.67
2023-04-10T09:27:53.095Z,12.66
2023-04-10T09:32:07.141Z,12.92
2023-04-10T09:39:58.388Z,13.37
2023-04-10T10:06:41.336Z,14.40
2023-04-10T10:23:27.338Z,14.06
2023-04-10T10:35:22.971Z,13.81
2023-04-10T10:42:45.083Z,13.88
2023-04-10T10:45:56.583Z,13.91
2023-04-10T10:49:01.364Z,13.79
2023-04-10T10:52:38.938Z,13.88
2023-04-10T10:55:42.916Z,13.79
2023-04-10T10:59:12.705Z,13.80
2023-04-10T11:02:28.305Z,13.96
2023-04-10T11:06:15.367Z,13.47
2023-04-10T11:10:11.016Z,13.46
2023-04-10T11:13:28.276Z,13.39
2023-04-10T11:16:51.733Z,13.52
2023-04-10T11:20:25.960Z,13.38
2023-04-10T11:23:37.064Z,13.17
2023-04-10T11:26:48.739Z,13.14
2023-04-10T11:30:38.583Z,13.40
2023-04-10T11:34:05.898Z,13.16
2023-04-10T11:38:20.405Z,13.26
2023-04-10T11:41:12.838Z,13.33
2023-04-10T11:44:31.759Z,13.50
2023-04-10T11:47:48.787Z,13.64
2023-04-10T11:50:57.171Z,13.81
2023-04-10T11:54:56.099Z,13.75
2023-04-10T11:58:32.642Z,13.68
2023-04-10T12:01:44.334Z,13.59
2023-04-10T12:05:10.939Z,13.62
2023-04-10T12:08:17.074Z,13.44
2023-04-10T12:11:37.234Z,13.24
2023-04-10T12:14:49.003Z,13.30
2023-04-10T12:17:55.316Z,13.54
2023-04-10T12:21:04.748Z,13.41
2023-04-10T12:24:52.983Z,13.32
2023-04-10T12:28:05.379Z,13.18
2023-04-10T12:31:43.565Z,13.26
2023-04-10T12:35:04.936Z,13.22
2023-04-10T12:38:08.928Z,13.43
2023-04-10T12:41:12.827Z,13.27
2023-04-10T12:44:17.126Z,13.21
2023-04-10T12:47:26.916Z,13.00
2023-04-10T12:50:32.081Z,13.15
2023-04-10T12:53:56.741Z,13.14
2023-04-10T12:57:09.548Z,13.33
2023-04-10T13:00:15.409Z,13.29
2023-04-10T13:03:19.891Z,13.18
2023-04-10T13:06:22.972Z,13.16
2023-04-10T13:09:26.442Z,13.23
2023-04-10T13:12:30.437Z,13.47
2023-04-10T13:15:35.673Z,13.74
2023-04-10T13:18:44.976Z,13.75
2023-04-10T13:21:56.136Z,13.60
2023-04-10T13:25:06.472Z,13.46
2023-04-10T13:28:12.727Z,13.49
2023-04-10T13:31:40.208Z,13.60
2023-04-10T13:34:53.164Z,13.61
2023-04-10T13:37:59.913Z,13.75
2023-04-10T13:41:04.222Z,13.49
2023-04-10T13:44:10.883Z,13.30
2023-04-10T13:47:40.611Z,13.20
2023-04-10T13:50:44.048Z,13.25
2023-04-10T13:53:49.277Z,13.48
2023-04-10T14:00:47.744Z,13.51
2023-04-10T14:04:01.341Z,13.56
2023-04-10T14:07:12.292Z,13.54
2023-04-10T14:10:36.746Z,13.71
2023-04-10T14:13:41.149Z,13.90
2023-04-10T14:17:09.296Z,13.94
2023-04-10T14:21:08.844Z,13.97
2023-04-10T14:38:42.295Z,13.99
2023-04-10T15:21:49.358Z,14.28
2023-04-10T15:25:23.784Z,14.20
2023-04-10T15:28:50.965Z,14.18
2023-04-10T15:32:38.364Z,14.31
2023-04-10T17:10:43.016Z,14.50
2023-04-10T17:25:53.303Z,14.50
2023-04-10T17:29:35.590Z,14.05
2023-04-10T17:33:22.759Z,14.24
2023-04-10T17:45:24.578Z,14.41
2023-04-10T17:48:52.301Z,14.44
2023-04-10T17:52:06.030Z,14.22
2023-04-10T17:55:42.008Z,13.85
2023-04-10T18:02:32.217Z,13.18
2023-04-10T18:05:49.264Z,12.98
2023-04-10T18:09:14.324Z,12.84
2023-04-10T18:12:19.140Z,12.74
2023-04-10T18:15:37.311Z,12.64
2023-04-10T18:18:47.445Z,12.75
2023-04-10T18:22:19.470Z,12.63
2023-04-10T18:25:30.071Z,12.83
2023-04-10T18:28:38.773Z,12.81
2023-04-10T18:32:13.274Z,12.98
2023-04-10T18:35:20.193Z,12.82
2023-04-10T18:38:53.570Z,12.86
2023-04-10T18:42:08.693Z,12.70
2023-04-10T18:45:20.323Z,12.94
2023-04-10T18:48:27.331Z,13.04
2023-04-10T18:51:39.050Z,12.88
2023-04-10T18:54:45.976Z,12.74
2023-04-10T18:57:56.966Z,12.61
2023-04-10T19:01:00.577Z,12.29
2023-04-10T19:04:10.855Z,12.22
2023-04-10T19:07:36.225Z,12.19
2023-04-10T19:10:43.142Z,12.30
2023-04-10T19:13:50.412Z,12.37
2023-04-10T19:17:08.996Z,12.25
2023-04-10T19:20:16.973Z,12.31
2023-04-10T19:24:14.349Z,12.02
2023-04-10T19:27:51.705Z,12.30
2023-04-10T19:31:01.032Z,12.16
2023-04-10T19:34:10.030Z,12.30
2023-04-10T19:37:13.294Z,12.32
2023-04-10T19:40:19.899Z,12.22
2023-04-10T19:43:26.645Z,11.64
2023-04-10T19:46:29.883Z,11.96
2023-04-10T19:49:33.690Z,12.00
2023-04-10T19:52:35.945Z,11.92
2023-04-10T19:55:40.809Z,11.85
2023-04-10T19:58:49.557Z,11.94
2023-04-10T20:01:55.740Z,11.60
2023-04-10T20:05:01.092Z,11.35
2023-04-10T20:08:06.886Z,11.55
2023-04-10T20:11:15.690Z,11.57
2023-04-10T20:14:25.819Z,11.46
2023-04-10T20:17:40.599Z,11.46
2023-04-10T20:20:47.212Z,11.33
2023-04-10T20:24:00.065Z,11.41
2023-04-10T20:27:18.335Z,11.74
2023-04-10T20:30:27.657Z,11.46
2023-04-10T20:33:34.216Z,11.68
2023-04-10T20:36:40.442Z,11.55
2023-04-10T20:39:47.812Z,11.55
2023-04-10T20:43:05.447Z,11.34
2023-04-10T20:46:33.695Z,11.32
2023-04-10T20:49:40.225Z,11.01
2023-04-10T20:52:57.762Z,11.09
2023-04-10T20:56:19.969Z,10.80
2023-04-10T20:59:37.872Z,10.83
2023-04-10T21:02:52.282Z,10.91
2023-04-10T21:06:00.685Z,10.84
2023-04-10T21:09:23.197Z,10.85
2023-04-10T21:12:34.154Z,10.65
2023-04-10T21:15:54.935Z,10.73
2023-04-10T21:19:38.567Z,10.43
2023-04-10T21:23:06.275Z,10.46
2023-04-10T21:26:28.308Z,10.28
2023-04-10T21:29:39.782Z,9.98
2023-04-10T21:32:52.583Z,10.05
2023-04-10T21:36:14.058Z,9.63
2023-04-10T21:39:25.399Z,9.90
2023-04-10T21:42:33.736Z,9.86
2023-04-10T21:45:50.138Z,9.72
2023-04-10T21:49:04.642Z,9.79
2023-04-10T21:52:27.127Z,9.81
2023-04-10T21:55:36.172Z,9.89
2023-04-10T21:59:02.062Z,9.83
2023-04-10T22:02:13.905Z,9.86
2023-04-10T22:05:18.004Z,9.89
2023-04-10T22:08:22.949Z,9.88
2023-04-10T22:11:39.529Z,9.72
2023-04-10T22:15:06.160Z,9.44
2023-04-10T22:18:20.589Z,9.55
2023-04-10T22:21:35.494Z,9.65
2023-04-10T22:24:50.160Z,9.52
2023-04-10T22:28:15.540Z,9.42
2023-04-10T22:31:27.930Z,9.56
2023-04-10T22:34:38.501Z,9.36
2023-04-10T22:37:57.128Z,9.31
2023-04-10T22:41:13.597Z,9.51
2023-04-10T22:44:29.852Z,9.53
2023-04-10T22:47:47.970Z,9.57
2023-04-10T22:50:57.814Z,9.49
2023-04-10T22:54:06.617Z,9.63
2023-04-10T22:57:13.479Z,9.63
2023-04-10T23:00:30.298Z,9.60
2023-04-10T23:03:39.793Z,9.44
2023-04-10T23:06:48.701Z,9.33
2023-04-10T23:09:57.298Z,9.35
2023-04-10T23:13:06.982Z,9.21
2023-04-10T23:16:19.134Z,9.46
2023-04-10T23:19:26.171Z,9.28
2023-04-10T23:22:32.526Z,9.09
2023-04-10T23:25:35.598Z,8.99
2023-04-10T23:29:03.445Z,9.13
2023-04-10T23:32:08.757Z,9.04
2023-04-10T23:35:11.740Z,8.90
2023-04-10T23:38:15.216Z,9.12
2023-04-10T23:41:27.807Z,8.97
2023-04-10T23:44:35.593Z,8.83
2023-04-10T23:47:44.030Z,9.09
2023-04-10T23:50:47.682Z,8.93
2023-04-10T23:53:53.414Z,8.81
2023-04-10T23:56:56.684Z,8.85
